Time;durP1;ratioP1;P1;durP2;ratioP2;P2;SDS_P1;SDS_P2;PMS_P1;PMS_P2;Temp;Humidity;BMP_temperature;BMP_pressure;BME280_temperature;BME280_humidity;BME280_pressure;Samples;Min_cycle;Max_cycle;Signal;HPM_P1;HPM_P2
2023/11/14 00:00:44;;;;;;;;;;;;;;;;;;5043348;28;19951;-75
2023/11/14 00:03:10;;;;;;;;;;;;;;;;;;5058678;28;19999;-76
2023/11/14 00:05:36;;;;;;;;;;;;;;;;;;5071012;28;20069;-75
2023/11/14 00:08:02;;;;;;;;;;;;;;;;;;5042500;28;19916;-75
2023/11/14 00:10:28;;;;;;;;;;;;;;;;;;5067424;28;19992;-75
2023/11/14 00:12:53;;;;;;;;;;;;;;;;;;5070519;28;20011;-72
2023/11/14 00:15:18;;;;;;;;;;;;;;;;;;5047478;28;19913;-75
2023/11/14 00:17:44;;;;;;;;;;;;;;;;;;5059780;28;20238;-75
2023/11/14 00:20:09;;;;;;;;;;;;;;;;;;5042338;28;19953;-74
2023/11/14 00:22:34;;;;;;;;;;;;;;;;;;5070965;28;20268;-76
2023/11/14 00:24:59;;;;;;;;;;;;;;;;;;5056360;28;20015;-73
2023/11/14 00:27:28;;;;;;;;;;;;;;;;;;5058741;28;19916;-76
2023/11/14 00:29:53;;;;;;;;;;;;;;;;;;5041039;28;19920;-76
2023/11/14 00:32:18;;;;;;;;;;;;;;;;;;5057060;28;19920;-78
2023/11/14 00:34:44;;;;;;;;;;;;;;;;;;5056427;28;20330;-74
2023/11/14 00:37:09;;;;;;;;;;;;;;;;;;5042119;28;19983;-75
2023/11/14 00:39:35;;;;;;;;;;;;;;;;;;5068564;28;20085;-75
2023/11/14 00:42:00;;;;;;;;;;;;;;;;;;5057378;28;19927;-73
2023/11/14 00:44:25;;;;;;;;;;;;;;;;;;5038186;28;20082;-71
2023/11/14 00:46:51;;;;;;;;;;;;;;;;;;5057243;28;20133;-77
2023/11/14 00:49:16;;;;;;;;;;;;;;;;;;5070513;28;22167;-74
2023/11/14 00:51:42;;;;;;;;;;;;;;;;;;5070991;28;19974;-69
2023/11/14 00:54:08;;;;;;;;;;;;;;;;;;5053403;28;19968;-78
2023/11/14 00:56:36;;;;;;;;;;;;;;;;;;5058761;28;19932;-71
2023/11/14 00:59:03;;;;;;;;;;;;;;;;;;5040058;28;19936;-71
2023/11/14 01:01:31;;;;;;;;;;;;;;;;;;5058990;28;20421;-70
2023/11/14 01:03:56;;;;;;;;;;;;;;;;;;5041490;28;19923;-73
2023/11/14 01:06:23;;;;;;;;;;;;;;;;;;5041761;28;19924;-71
2023/11/14 01:08:51;;;;;;;;;;;;;;;;;;5041904;28;20972;-75
2023/11/14 01:11:16;;;;;;;;;;;;;;;;;;5056662;28;19940;-74
2023/11/14 01:13:42;;;;;;;;;;;;;;;;;;5057107;28;19924;-78
2023/11/14 01:16:08;;;;;;;;;;;;;;;;;;5061278;28;19931;-76
2023/11/14 01:18:35;;;;;;;;;;;;;;;;;;5040859;28;19936;-77
2023/11/14 01:21:03;;;;;;;;;;;;;;;;;;5054065;28;19915;-78
2023/11/14 01:23:29;;;;;;;;;;;;;;;;;;5055840;28;19916;-74
2023/11/14 01:25:54;;;;;;;;;;;;;;;;;;5059335;28;19940;-74
2023/11/14 01:28:20;;;;;;;;;;;;;;;;;;5057433;28;20387;-75
2023/11/14 01:30:45;;;;;;;;;;;;;;;;;;5062335;28;19920;-72
2023/11/14 01:33:10;;;;;;;;;;;;;;;;;;5062310;28;19920;-76
2023/11/14 01:35:36;;;;;;;;;;;;;;;;;;5062188;28;19916;-74
2023/11/14 01:38:01;;;;;;;;;;;;;;;;;;5049333;28;19963;-73
2023/11/14 01:40:29;;;;;;;;;;;;;;;;;;5045423;28;19927;-73
2023/11/14 01:42:56;;;;;;;;;;;;;;;;;;5074765;28;19931;-76
2023/11/14 01:45:22;;;;;;;;;;;;;;;;;;5057468;28;20091;-76
2023/11/14 01:47:48;;;;;;;;;;;;;;;;;;5062036;28;20023;-74
2023/11/14 01:50:16;;;;;;;;;;;;;;;;;;5044367;28;20014;-73
2023/11/14 01:52:47;;;;;;;;;;;;;;;;;;5073731;28;20601;-71
2023/11/14 01:55:15;;;;;;;;;;;;;;;;;;5057227;28;19928;-74
2023/11/14 01:57:43;;;;;;;;;;;;;;;;;;5073570;28;19916;-76
2023/11/14 02:00:09;;;;;;;;;;;;;;;;;;5044891;28;19923;-73
2023/11/14 02:02:34;;;;;;;;;;;;;;;;;;5047263;28;20335;-74
2023/11/14 02:05:05;;;;;;;;;;;;;;;;;;5055673;28;20052;-73
2023/11/14 02:07:30;;;;;;;;;;;;;;;;;;5046134;28;20352;-73
2023/11/14 02:09:55;;;;;;;;;;;;;;;;;;5048164;28;20034;-76
2023/11/14 02:12:21;;;;;;;;;;;;;;;;;;5073582;28;19938;-72
2023/11/14 02:14:49;;;;;;;;;;;;;;;;;;5061231;28;19980;-69
2023/11/14 02:17:16;;;;;;;;;;;;;;;;;;5045427;28;20011;-73
2023/11/14 02:19:42;;;;;;;;;;;;;;;;;;5063065;28;19923;-70
2023/11/14 02:22:07;;;;;;;;;;;;;;;;;;5073327;28;19920;-77
2023/11/14 02:24:35;;;;;;;;;;;;;;;;;;5062748;28;19927;-70
2023/11/14 02:27:07;;;;;;;;;;;;;;;;;;5044481;28;20433;-72
2023/11/14 02:29:33;;;;;;;;;;;;;;;;;;5044383;28;20007;-74
2023/11/14 02:32:00;;;;;;;;;;;;;;;;;;5073625;28;19928;-72
2023/11/14 02:34:28;;;;;;;;;;;;;;;;;;5059488;28;19916;-72
2023/11/14 02:36:56;;;;;;;;;;;;;;;;;;5057819;28;19944;-70
2023/11/14 02:39:22;;;;;;;;;;;;;;;;;;5043306;28;19950;-71
2023/11/14 02:41:47;;;;;;;;;;;;;;;;;;5045729;28;20343;-75
2023/11/14 02:44:13;;;;;;;;;;;;;;;;;;5060721;28;20431;-75
2023/11/14 02:46:40;;;;;;;;;;;;;;;;;;5060240;28;19916;-73
2023/11/14 02:49:06;;;;;;;;;;;;;;;;;;5058204;28;20304;-75
2023/11/14 02:51:32;;;;;;;;;;;;;;;;;;5042268;28;20366;-77
2023/11/14 02:53:57;;;;;;;;;;;;;;;;;;5055601;28;19924;-77
2023/11/14 02:56:22;;;;;;;;;;;;;;;;;;5054380;28;19927;-75
2023/11/14 02:58:50;;;;;;;;;;;;;;;;;;5072057;28;20010;-75
2023/11/14 03:01:18;;;;;;;;;;;;;;;;;;5031541;28;19916;-74
2023/11/14 03:03:46;;;;;;;;;;;;;;;;;;5070349;28;19986;-75
2023/11/14 03:06:11;;;;;;;;;;;;;;;;;;5047906;28;19928;-73
2023/11/14 03:08:37;;;;;;;;;;;;;;;;;;5071664;28;19916;-74
2023/11/14 03:11:04;;;;;;;;;;;;;;;;;;5058608;28;19977;-74
2023/11/14 03:13:32;;;;;;;;;;;;;;;;;;5043534;28;20004;-76
2023/11/14 03:16:03;;;;;;;;;;;;;;;;;;5060002;28;21905;-73
2023/11/14 03:18:34;;;;;;;;;;;;;;;;;;5060402;28;19963;-75
2023/11/14 03:20:59;;;;;;;;;;;;;;;;;;5040995;28;19916;-74
2023/11/14 03:23:24;;;;;;;;;;;;;;;;;;5047654;28;19931;-73
2023/11/14 03:25:50;;;;;;;;;;;;;;;;;;5031673;28;19930;-73
2023/11/14 03:28:15;;;;;;;;;;;;;;;;;;5058717;28;19921;-77
2023/11/14 03:30:43;;;;;;;;;;;;;;;;;;5072285;28;19927;-73
2023/11/14 03:33:11;;;;;;;;;;;;;;;;;;5042414;28;19928;-72
2023/11/14 03:35:37;;;;;;;;;;;;;;;;;;5044124;28;19916;-70
2023/11/14 03:38:05;;;;;;;;;;;;;;;;;;5044363;28;19939;-73
2023/11/14 03:40:33;;;;;;;;;;;;;;;;;;5056218;28;19959;-72
2023/11/14 03:42:59;;;;;;;;;;;;;;;;;;5070086;28;20003;-77
2023/11/14 03:45:24;;;;;;;;;;;;;;;;;;5064577;28;19920;-73
2023/11/14 03:47:52;;;;;;;;;;;;;;;;;;5039155;28;19967;-77
2023/11/14 03:50:17;;;;;;;;;;;;;;;;;;5059724;28;20616;-75
2023/11/14 03:52:43;;;;;;;;;;;;;;;;;;5057652;28;19927;-72
2023/11/14 03:55:11;;;;;;;;;;;;;;;;;;5040646;28;19992;-76
2023/11/14 03:57:37;;;;;;;;;;;;;;;;;;5055799;28;19971;-73
2023/11/14 04:00:05;;;;;;;;;;;;;;;;;;5042091;28;19983;-76
2023/11/14 04:02:38;;;;;;;;;;;;;;;;;;5069700;28;20356;-73
2023/11/14 04:05:06;;;;;;;;;;;;;;;;;;5059732;28;20391;-77
2023/11/14 04:07:34;;;;;;;;;;;;;;;;;;5070516;28;19951;-74
2023/11/14 04:09:59;;;;;;;;;;;;;;;;;;5055345;28;20010;-73
2023/11/14 04:12:27;;;;;;;;;;;;;;;;;;5060116;28;20022;-77
2023/11/14 04:14:52;;;;;;;;;;;;;;;;;;5038781;28;19956;-76
2023/11/14 04:17:18;;;;;;;;;;;;;;;;;;5069431;28;20090;-77
2023/11/14 04:19:44;;;;;;;;;;;;;;;;;;5070583;28;19917;-76
2023/11/14 04:22:10;;;;;;;;;;;;;;;;;;5056937;28;19931;-77
2023/11/14 04:24:40;;;;;;;;;;;;;;;;;;5047245;28;20170;-74
2023/11/14 04:27:05;;;;;;;;;;;;;;;;;;5052921;28;19916;-73
2023/11/14 04:29:31;;;;;;;;;;;;;;;;;;5056385;28;20257;-74
2023/11/14 04:31:59;;;;;;;;;;;;;;;;;;5066752;28;19974;-76
2023/11/14 04:34:27;;;;;;;;;;;;;;;;;;5070087;28;20018;-73
2023/11/14 04:36:54;;;;;;;;;;;;;;;;;;5055136;28;19916;-79
2023/11/14 04:39:20;;;;;;;;;;;;;;;;;;5069552;28;19917;-76
2023/11/14 04:41:48;;;;;;;;;;;;;;;;;;5041629;28;19920;-77
2023/11/14 04:44:13;;;;;;;;;;;;;;;;;;5058702;28;19920;-78
2023/11/14 04:46:41;;;;;;;;;;;;;;;;;;5071266;28;20448;-77
2023/11/14 04:49:11;;;;;;;;;;;;;;;;;;5068884;28;19920;-76
2023/11/14 04:51:36;;;;;;;;;;;;;;;;;;5075994;28;19949;-76
2023/11/14 04:54:02;;;;;;;;;;;;;;;;;;5073262;28;19996;-76
2023/11/14 04:56:27;;;;;;;;;;;;;;;;;;5049276;28;19923;-75
2023/11/14 04:58:52;;;;;;;;;;;;;;;;;;5074784;28;19916;-75
2023/11/14 05:01:21;;;;;;;;;;;;;;;;;;5073943;28;19968;-74
2023/11/14 05:03:50;;;;;;;;;;;;;;;;;;5049276;28;20442;-76
2023/11/14 05:06:18;;;;;;;;;;;;;;;;;;5055867;28;20821;-72
2023/11/14 05:08:43;;;;;;;;;;;;;;;;;;5089189;28;19920;-75
2023/11/14 05:11:11;;;;;;;;;;;;;;;;;;5073300;28;19920;-74
2023/11/14 05:13:37;;;;;;;;;;;;;;;;;;5072428;28;19934;-76
2023/11/14 05:16:03;;;;;;;;;;;;;;;;;;5073892;28;19947;-73
2023/11/14 05:18:29;;;;;;;;;;;;;;;;;;5065176;28;20552;-74
2023/11/14 05:20:57;;;;;;;;;;;;;;;;;;5060642;28;19931;-75
2023/11/14 05:23:22;;;;;;;;;;;;;;;;;;5057089;28;19920;-75
2023/11/14 05:25:47;;;;;;;;;;;;;;;;;;5060132;28;19920;-77
2023/11/14 05:28:12;;;;;;;;;;;;;;;;;;5075208;28;19920;-74
2023/11/14 05:30:38;;;;;;;;;;;;;;;;;;5058534;28;20325;-74
2023/11/14 05:33:08;;;;;;;;;;;;;;;;;;5089450;28;19924;-75
2023/11/14 05:35:34;;;;;;;;;;;;;;;;;;5073784;28;19930;-75
2023/11/14 05:37:59;;;;;;;;;;;;;;;;;;5078665;28;19959;-75
2023/11/14 05:40:27;;;;;;;;;;;;;;;;;;5060387;28;19963;-73
2023/11/14 05:42:53;;;;;;;;;;;;;;;;;;5077018;28;19927;-76
2023/11/14 05:45:21;;;;;;;;;;;;;;;;;;5055039;28;19916;-74
2023/11/14 05:47:51;;;;;;;;;;;;;;;;;;5066868;28;19920;-76
2023/11/14 05:50:19;;;;;;;;;;;;;;;;;;5080479;28;20193;-75
2023/11/14 05:52:50;;;;;;;;;;;;;;;;;;5053379;28;20397;-75
2023/11/14 05:55:16;;;;;;;;;;;;;;;;;;5053172;28;20483;-78
2023/11/14 05:57:41;;;;;;;;;;;;;;;;;;5059927;28;20019;-77
2023/11/14 06:00:13;;;;;;;;;;;;;;;;;;5054118;28;19916;-75
2023/11/14 06:02:41;;;;;;;;;;;;;;;;;;5054987;28;20888;-74
2023/11/14 06:05:09;;;;;;;;;;;;;;;;;;5039587;28;19916;-77
2023/11/14 06:07:34;;;;;;;;;;;;;;;;;;5065875;28;19998;-76
2023/11/14 06:10:00;;;;;;;;;;;;;;;;;;5040039;28;20621;-76
2023/11/14 06:12:25;;;;;;;;;;;;;;;;;;5061857;28;20007;-75
2023/11/14 06:14:50;;;;;;;;;;;;;;;;;;5059223;28;20351;-74
2023/11/14 06:17:18;;;;;;;;;;;;;;;;;;5072540;28;20017;-73
2023/11/14 06:19:44;;;;;;;;;;;;;;;;;;5047738;28;20345;-77
2023/11/14 06:22:09;;;;;;;;;;;;;;;;;;5032577;28;19936;-75
2023/11/14 06:24:34;;;;;;;;;;;;;;;;;;5042877;28;20008;-76
2023/11/14 06:27:00;;;;;;;;;;;;;;;;;;5057595;28;19916;-71
2023/11/14 06:29:25;;;;;;;;;;;;;;;;;;5072321;28;19922;-69
2023/11/14 06:31:51;;;;;;;;;;;;;;;;;;5056449;28;19920;-75
2023/11/14 06:34:16;;;;;;;;;;;;;;;;;;5059661;28;19923;-71
2023/11/14 06:36:41;;;;;;;;;;;;;;;;;;5071797;28;19920;-74
2023/11/14 06:39:07;;;;;;;;;;;;;;;;;;5075387;28;20037;-73
2023/11/14 06:41:32;;;;;;;;;;;;;;;;;;5042669;28;20079;-74
2023/11/14 06:43:57;;;;;;;;;;;;;;;;;;5046504;28;20545;-76
2023/11/14 06:46:23;;;;;;;;;;;;;;;;;;5054169;28;20368;-75
2023/11/14 06:48:51;;;;;;;;;;;;;;;;;;5042847;28;19942;-72
2023/11/14 06:51:17;;;;;;;;;;;;;;;;;;5037317;28;20283;-74
2023/11/14 06:53:42;;;;;;;;;;;;;;;;;;5055895;28;19920;-78
2023/11/14 06:56:08;;;;;;;;;;;;;;;;;;5060733;28;20025;-76
2023/11/14 06:58:34;;;;;;;;;;;;;;;;;;5043702;28;19947;-75
2023/11/14 07:00:59;;;;;;;;;;;;;;;;;;5056070;28;19950;-74
2023/11/14 07:03:30;;;;;;;;;;;;;;;;;;5042146;28;19920;-71
2023/11/14 07:05:59;;;;;;;;;;;;;;;;;;5033844;28;19923;-72
2023/11/14 07:08:24;;;;;;;;;;;;;;;;;;5044336;28;19920;-73
2023/11/14 07:10:49;;;;;;;;;;;;;;;;;;5041999;28;20397;-74
2023/11/14 07:13:15;;;;;;;;;;;;;;;;;;5043475;28;19947;-75
2023/11/14 07:15:40;;;;;;;;;;;;;;;;;;5042267;28;20056;-74
2023/11/14 07:18:09;;;;;;;;;;;;;;;;;;5069553;28;19988;-77
2023/11/14 07:20:34;;;;;;;;;;;;;;;;;;5072990;28;20102;-74
2023/11/14 07:22:59;;;;;;;;;;;;;;;;;;5041566;28;20375;-74
2023/11/14 07:25:34;;;;;;;;;;;;;;;;;;5030829;28;20010;-71
2023/11/14 07:27:59;;;;;;;;;;;;;;;;;;5070808;28;20116;-77
2023/11/14 07:30:26;;;;;;;;;;;;;;;;;;5056216;28;20448;-76
2023/11/14 07:32:51;;;;;;;;;;;;;;;;;;5071056;28;19916;-77
2023/11/14 07:35:21;;;;;;;;;;;;;;;;;;5043884;28;19921;-77
2023/11/14 07:37:46;;;;;;;;;;;;;;;;;;5052666;28;19916;-78
2023/11/14 07:40:12;;;;;;;;;;;;;;;;;;5041868;28;20378;-77
2023/11/14 07:42:42;;;;;;;;;;;;;;;;;;5072813;28;19916;-77
2023/11/14 07:45:08;;;;;;;;;;;;;;;;;;5064052;28;20017;-70
2023/11/14 07:47:33;;;;;;;;;;;;;;;;;;5063417;28;20331;-75
2023/11/14 07:49:59;;;;;;;;;;;;;;;;;;5058325;28;20005;-73
2023/11/14 07:52:24;;;;;;;;;;;;;;;;;;5081311;28;20079;-76
2023/11/14 07:54:53;;;;;;;;;;;;;;;;;;5096436;28;19942;-78
2023/11/14 07:57:18;;;;;;;;;;;;;;;;;;5067924;28;19958;-74
2023/11/14 07:59:45;;;;;;;;;;;;;;;;;;5093220;28;19919;-76
2023/11/14 08:02:11;;;;;;;;;;;;;;;;;;5076651;28;19973;-75
2023/11/14 08:04:40;;;;;;;;;;;;;;;;;;5076839;28;20264;-77
2023/11/14 08:07:07;;;;;;;;;;;;;;;;;;5091049;28;19946;-76
2023/11/14 08:09:35;;;;;;;;;;;;;;;;;;5076096;28;19915;-76
2023/11/14 08:12:03;;;;;;;;;;;;;;;;;;5061314;28;19927;-78
2023/11/14 08:14:28;;;;;;;;;;;;;;;;;;5089308;28;19915;-77
2023/11/14 08:16:54;;;;;;;;;;;;;;;;;;5063310;28;20266;-71
2023/11/14 08:19:19;;;;;;;;;;;;;;;;;;5091098;27;20464;-76
2023/11/14 08:21:47;;;;;;;;;;;;;;;;;;5063085;28;19924;-76
2023/11/14 08:24:15;;;;;;;;;;;;;;;;;;5073182;28;19982;-74
2023/11/14 08:26:40;;;;;;;;;;;;;;;;;;5062810;28;19920;-74
2023/11/14 08:29:08;;;;;;;;;;;;;;;;;;5048829;28;19949;-73
2023/11/14 08:31:34;;;;;;;;;;;;;;;;;;5077553;28;20012;-77
2023/11/14 08:34:00;;;;;;;;;;;;;;;;;;5079179;28;20197;-75
2023/11/14 08:36:28;;;;;;;;;;;;;;;;;;5074449;28;19919;-75
2023/11/14 08:38:53;;;;;;;;;;;;;;;;;;5075941;28;20226;-77
2023/11/14 08:41:19;;;;;;;;;;;;;;;;;;5060610;28;20398;-77
2023/11/14 08:43:47;;;;;;;;;;;;;;;;;;5063746;28;20069;-76
2023/11/14 08:46:18;;;;;;;;;;;;;;;;;;5067787;28;20286;-77
2023/11/14 08:48:43;;;;;;;;;;;;;;;;;;5075548;28;20379;-77
2023/11/14 08:51:10;;;;;;;;;;;;;;;;;;5079085;28;20031;-79
2023/11/14 08:53:35;;;;;;;;;;;;;;;;;;5079272;28;19924;-78
2023/11/14 08:56:03;;;;;;;;;;;;;;;;;;5061202;28;19920;-74
2023/11/14 08:58:31;;;;;;;;;;;;;;;;;;5061370;28;19959;-76
2023/11/14 09:00:58;;;;;;;;;;;;;;;;;;5078445;28;20022;-73
2023/11/14 09:03:23;;;;;;;;;;;;;;;;;;5088592;27;20570;-77
2023/11/14 09:05:53;;;;;;;;;;;;;;;;;;5061480;28;19936;-75
2023/11/14 09:08:19;;;;;;;;;;;;;;;;;;5074360;28;20099;-75
2023/11/14 09:10:44;;;;;;;;;;;;;;;;;;5057493;28;20781;-75
2023/11/14 09:13:11;;;;;;;;;;;;;;;;;;5089630;28;20458;-74
2023/11/14 09:15:39;;;;;;;;;;;;;;;;;;5077160;28;19928;-76
2023/11/14 09:18:08;;;;;;;;;;;;;;;;;;5078077;28;19926;-73
2023/11/14 09:20:36;;;;;;;;;;;;;;;;;;5075032;28;19955;-76
2023/11/14 09:23:02;;;;;;;;;;;;;;;;;;5073569;28;20015;-74
2023/11/14 09:25:27;;;;;;;;;;;;;;;;;;5071488;28;19954;-76
2023/11/14 09:27:55;;;;;;;;;;;;;;;;;;5079565;28;19980;-75
2023/11/14 09:30:21;;;;;;;;;;;;;;;;;;5078512;28;19916;-77
2023/11/14 09:32:46;;;;;;;;;;;;;;;;;;5078218;28;19982;-76
2023/11/14 09:35:14;;;;;;;;;;;;;;;;;;5062614;28;19922;-75
2023/11/14 09:37:39;;;;;;;;;;;;;;;;;;5073639;28;19919;-75
2023/11/14 09:40:08;;;;;;;;;;;;;;;;;;5064923;28;19920;-77
2023/11/14 09:42:33;;;;;;;;;;;;;;;;;;5059934;28;19920;-73
2023/11/14 09:45:00;;;;;;;;;;;;;;;;;;5077387;28;19951;-74
2023/11/14 09:47:25;;;;;;;;;;;;;;;;;;5077779;28;20050;-76
2023/11/14 09:49:53;;;;;;;;;;;;;;;;;;5063809;28;19931;-72
2023/11/14 09:52:20;;;;;;;;;;;;;;;;;;5078491;28;20007;-77
2023/11/14 09:54:48;;;;;;;;;;;;;;;;;;5064164;28;19915;-73
2023/11/14 09:57:18;;;;;;;;;;;;;;;;;;5080768;28;19934;-71
2023/11/14 09:59:44;;;;;;;;;;;;;;;;;;5069875;28;19934;-72
2023/11/14 10:02:09;;;;;;;;;;;;;;;;;;5092030;27;20112;-75
2023/11/14 10:04:38;;;;;;;;;;;;;;;;;;5079597;28;20077;-74
2023/11/14 10:07:03;;;;;;;;;;;;;;;;;;5081024;28;20047;-75
2023/11/14 10:09:31;;;;;;;;;;;;;;;;;;5089160;28;19915;-73
2023/11/14 10:11:57;;;;;;;;;;;;;;;;;;5093800;28;20765;-72
2023/11/14 10:14:26;;;;;;;;;;;;;;;;;;5078101;28;19927;-74
2023/11/14 10:16:54;;;;;;;;;;;;;;;;;;5063491;28;19923;-73
2023/11/14 10:19:19;;;;;;;;;;;;;;;;;;5081646;28;20343;-78
2023/11/14 10:21:45;;;;;;;;;;;;;;;;;;5071033;28;19920;-74
2023/11/14 10:24:11;;;;;;;;;;;;;;;;;;5078294;28;19957;-74
2023/11/14 10:26:36;;;;;;;;;;;;;;;;;;5091454;27;19994;-74
2023/11/14 10:29:05;;;;;;;;;;;;;;;;;;5095066;28;20163;-69
2023/11/14 10:31:30;;;;;;;;;;;;;;;;;;5090153;27;20094;-70
2023/11/14 10:33:55;;;;;;;;;;;;;;;;;;5076321;28;20409;-68
2023/11/14 10:36:21;;;;;;;;;;;;;;;;;;5092516;27;19916;-68
2023/11/14 10:38:51;;;;;;;;;;;;;;;;;;5064385;28;19962;-67
2023/11/14 10:41:17;;;;;;;;;;;;;;;;;;5076661;28;20368;-69
2023/11/14 10:43:42;;;;;;;;;;;;;;;;;;5064414;28;19967;-71
2023/11/14 10:46:07;;;;;;;;;;;;;;;;;;5063128;28;19975;-73
2023/11/14 10:48:33;;;;;;;;;;;;;;;;;;5076236;28;20371;-68
2023/11/14 10:50:58;;;;;;;;;;;;;;;;;;5073261;27;19934;-71
2023/11/14 10:53:24;;;;;;;;;;;;;;;;;;5091779;28;20302;-71
2023/11/14 10:55:49;;;;;;;;;;;;;;;;;;5060645;28;20557;-70
2023/11/14 10:58:15;;;;;;;;;;;;;;;;;;5065359;28;20527;-76
2023/11/14 11:00:40;;;;;;;;;;;;;;;;;;5079529;28;19999;-73
2023/11/14 11:03:06;;;;;;;;;;;;;;;;;;5064321;28;19926;-71
2023/11/14 11:05:34;;;;;;;;;;;;;;;;;;5049163;28;20416;-73
2023/11/14 11:07:59;;;;;;;;;;;;;;;;;;5061464;28;19966;-72
2023/11/14 11:10:24;;;;;;;;;;;;;;;;;;5062864;28;19916;-72
2023/11/14 11:12:52;;;;;;;;;;;;;;;;;;5075724;28;20263;-73
2023/11/14 11:15:18;;;;;;;;;;;;;;;;;;5078988;28;19920;-71
2023/11/14 11:17:46;;;;;;;;;;;;;;;;;;5063816;28;20402;-76
2023/11/14 11:20:13;;;;;;;;;;;;;;;;;;5078164;28;19916;-74
2023/11/14 11:22:38;;;;;;;;;;;;;;;;;;5092131;27;20294;-73
2023/11/14 11:25:04;;;;;;;;;;;;;;;;;;5061521;28;19919;-77
2023/11/14 11:27:32;;;;;;;;;;;;;;;;;;5052079;28;20339;-76
2023/11/14 11:29:58;;;;;;;;;;;;;;;;;;5062647;28;19938;-76
2023/11/14 11:32:23;;;;;;;;;;;;;;;;;;5085264;28;20375;-76
2023/11/14 11:34:50;;;;;;;;;;;;;;;;;;5076950;28;19919;-72
2023/11/14 11:37:16;;;;;;;;;;;;;;;;;;5091491;27;19920;-75
2023/11/14 11:39:41;;;;;;;;;;;;;;;;;;5089506;27;19956;-77
2023/11/14 11:42:12;;;;;;;;;;;;;;;;;;5062238;28;20341;-74
2023/11/14 11:44:41;;;;;;;;;;;;;;;;;;5062391;28;19916;-75
2023/11/14 11:47:06;;;;;;;;;;;;;;;;;;5078572;28;20289;-78
2023/11/14 11:49:32;;;;;;;;;;;;;;;;;;5066372;28;19922;-77
2023/11/14 11:51:57;;;;;;;;;;;;;;;;;;5061540;28;19927;-77
2023/11/14 11:54:25;;;;;;;;;;;;;;;;;;5054805;28;19927;-77
2023/11/14 11:56:53;;;;;;;;;;;;;;;;;;5056599;28;19923;-73
2023/11/14 11:59:19;;;;;;;;;;;;;;;;;;5060008;28;19920;-72
2023/11/14 12:01:44;;;;;;;;;;;;;;;;;;5069692;28;19969;-76
2023/11/14 12:04:09;;;;;;;;;;;;;;;;;;5042549;28;19916;-77
2023/11/14 12:06:35;;;;;;;;;;;;;;;;;;5047036;28;20275;-72
2023/11/14 12:09:00;;;;;;;;;;;;;;;;;;5057541;28;19962;-73
2023/11/14 12:11:26;;;;;;;;;;;;;;;;;;5041159;28;19924;-76
2023/11/14 12:13:55;;;;;;;;;;;;;;;;;;5044527;28;19924;-71
2023/11/14 12:16:21;;;;;;;;;;;;;;;;;;5042460;28;19916;-72
2023/11/14 12:18:49;;;;;;;;;;;;;;;;;;5059171;28;20024;-72
2023/11/14 12:21:16;;;;;;;;;;;;;;;;;;5056129;28;20530;-72
2023/11/14 12:23:41;;;;;;;;;;;;;;;;;;5040101;28;20499;-70
2023/11/14 12:26:06;;;;;;;;;;;;;;;;;;5039841;28;19966;-71
2023/11/14 12:28:32;;;;;;;;;;;;;;;;;;5042402;28;20024;-71
2023/11/14 12:30:58;;;;;;;;;;;;;;;;;;5060011;28;20015;-73
2023/11/14 12:33:24;;;;;;;;;;;;;;;;;;5069751;28;19967;-72
2023/11/14 12:35:50;;;;;;;;;;;;;;;;;;5070030;28;20049;-72
2023/11/14 12:38:16;;;;;;;;;;;;;;;;;;5069255;28;19920;-75
2023/11/14 12:40:41;;;;;;;;;;;;;;;;;;5046603;28;19916;-74
2023/11/14 12:43:06;;;;;;;;;;;;;;;;;;5067980;28;19927;-69
2023/11/14 12:45:35;;;;;;;;;;;;;;;;;;5055272;28;19916;-71
2023/11/14 12:48:00;;;;;;;;;;;;;;;;;;5057089;28;20380;-71
2023/11/14 12:50:26;;;;;;;;;;;;;;;;;;5068911;28;19964;-74
2023/11/14 12:52:51;;;;;;;;;;;;;;;;;;5040709;28;19916;-75
2023/11/14 12:55:16;;;;;;;;;;;;;;;;;;5052447;28;19920;-73
2023/11/14 12:57:42;;;;;;;;;;;;;;;;;;5053166;28;19951;-74
2023/11/14 13:00:07;;;;;;;;;;;;;;;;;;5069105;28;19936;-73
2023/11/14 13:02:33;;;;;;;;;;;;;;;;;;5068780;28;20287;-73
2023/11/14 13:04:58;;;;;;;;;;;;;;;;;;5069150;28;19965;-77
2023/11/14 13:07:24;;;;;;;;;;;;;;;;;;5067490;28;19943;-71
2023/11/14 13:09:49;;;;;;;;;;;;;;;;;;5067519;28;20406;-73
2023/11/14 13:12:15;;;;;;;;;;;;;;;;;;5067821;28;20020;-76
2023/11/14 13:14:40;;;;;;;;;;;;;;;;;;5055182;28;19920;-68
2023/11/14 13:17:08;;;;;;;;;;;;;;;;;;5040560;28;20347;-72
2023/11/14 13:19:34;;;;;;;;;;;;;;;;;;5058123;28;20564;-71
2023/11/14 13:21:59;;;;;;;;;;;;;;;;;;5067132;28;19924;-71
2023/11/14 13:24:24;;;;;;;;;;;;;;;;;;5055960;28;20411;-70
2023/11/14 13:26:50;;;;;;;;;;;;;;;;;;5041051;28;19912;-67
2023/11/14 13:29:15;;;;;;;;;;;;;;;;;;5057810;28;19920;-71
2023/11/14 13:31:42;;;;;;;;;;;;;;;;;;5039379;28;19935;-67
2023/11/14 13:34:10;;;;;;;;;;;;;;;;;;5057094;28;20382;-67
2023/11/14 13:36:35;;;;;;;;;;;;;;;;;;5039587;28;19920;-67
2023/11/14 13:39:01;;;;;;;;;;;;;;;;;;5053771;28;19959;-67
2023/11/14 13:41:28;;;;;;;;;;;;;;;;;;5057601;28;19938;-66
2023/11/14 13:43:53;;;;;;;;;;;;;;;;;;5050572;28;19916;-67
2023/11/14 13:46:22;;;;;;;;;;;;;;;;;;5042244;28;19920;-69
2023/11/14 13:48:50;;;;;;;;;;;;;;;;;;5067649;28;19920;-67
2023/11/14 13:51:18;;;;;;;;;;;;;;;;;;5055810;28;19947;-67
2023/11/14 13:53:43;;;;;;;;;;;;;;;;;;5066675;28;20015;-67
2023/11/14 13:56:09;;;;;;;;;;;;;;;;;;5053678;28;19926;-67
2023/11/14 13:58:35;;;;;;;;;;;;;;;;;;5055660;28;19920;-67
2023/11/14 14:01:05;;;;;;;;;;;;;;;;;;5041790;28;20470;-68
2023/11/14 14:03:30;;;;;;;;;;;;;;;;;;5042482;28;19920;-67
2023/11/14 14:05:57;;;;;;;;;;;;;;;;;;5055685;28;20048;-67
2023/11/14 14:08:25;;;;;;;;;;;;;;;;;;5053336;28;19920;-67
2023/11/14 14:10:50;;;;;;;;;;;;;;;;;;5055658;28;19923;-68
2023/11/14 14:13:20;;;;;;;;;;;;;;;;;;5069867;28;19925;-69
2023/11/14 14:15:46;;;;;;;;;;;;;;;;;;5038291;28;19916;-68
2023/11/14 14:18:14;;;;;;;;;;;;;;;;;;5068428;28;19917;-67
2023/11/14 14:20:40;;;;;;;;;;;;;;;;;;5051414;28;21774;-71
2023/11/14 14:23:05;;;;;;;;;;;;;;;;;;5052165;28;19956;-68
2023/11/14 14:25:31;;;;;;;;;;;;;;;;;;5054983;28;19947;-69
2023/11/14 14:27:59;;;;;;;;;;;;;;;;;;5062411;28;19973;-68
2023/11/14 14:30:25;;;;;;;;;;;;;;;;;;5069210;28;19947;-73
2023/11/14 14:32:50;;;;;;;;;;;;;;;;;;5039463;28;19920;-68
2023/11/14 14:35:15;;;;;;;;;;;;;;;;;;5043596;28;20410;-67
2023/11/14 14:37:45;;;;;;;;;;;;;;;;;;5042038;28;19928;-68
2023/11/14 14:40:12;;;;;;;;;;;;;;;;;;5063955;28;19917;-66
2023/11/14 14:42:42;;;;;;;;;;;;;;;;;;5071705;28;20034;-67
2023/11/14 14:45:14;;;;;;;;;;;;;;;;;;5060147;28;19935;-68
2023/11/14 14:47:40;;;;;;;;;;;;;;;;;;5058719;28;19920;-68
2023/11/14 14:50:05;;;;;;;;;;;;;;;;;;5054960;28;20240;-67
2023/11/14 14:52:30;;;;;;;;;;;;;;;;;;5041510;28;19977;-67
2023/11/14 14:54:56;;;;;;;;;;;;;;;;;;5057544;28;19931;-67
2023/11/14 14:57:23;;;;;;;;;;;;;;;;;;5056668;28;20371;-67
2023/11/14 14:59:50;;;;;;;;;;;;;;;;;;5063882;28;19916;-67
2023/11/14 15:02:16;;;;;;;;;;;;;;;;;;5041586;28;19920;-67
2023/11/14 15:04:43;;;;;;;;;;;;;;;;;;5054896;28;19916;-68
2023/11/14 15:07:11;;;;;;;;;;;;;;;;;;5057538;28;19920;-68
2023/11/14 15:09:36;;;;;;;;;;;;;;;;;;5055279;28;19920;-67
2023/11/14 15:12:01;;;;;;;;;;;;;;;;;;5044634;28;21464;-68
2023/11/14 15:14:27;;;;;;;;;;;;;;;;;;5035895;28;20018;-67
2023/11/14 15:16:52;;;;;;;;;;;;;;;;;;5069601;28;20301;-67
2023/11/14 15:19:20;;;;;;;;;;;;;;;;;;5058965;28;20260;-68
2023/11/14 15:21:45;;;;;;;;;;;;;;;;;;5068200;28;19995;-69
2023/11/14 15:24:11;;;;;;;;;;;;;;;;;;5057445;28;19924;-68
2023/11/14 15:26:36;;;;;;;;;;;;;;;;;;5041944;28;19920;-68
2023/11/14 15:29:03;;;;;;;;;;;;;;;;;;5043051;28;20375;-68
2023/11/14 15:31:31;;;;;;;;;;;;;;;;;;5043277;28;20052;-68
2023/11/14 15:33:58;;;;;;;;;;;;;;;;;;5058821;28;19924;-67
2023/11/14 15:36:24;;;;;;;;;;;;;;;;;;5070103;28;20390;-67
2023/11/14 15:38:49;;;;;;;;;;;;;;;;;;5057524;28;19916;-67
2023/11/14 15:41:15;;;;;;;;;;;;;;;;;;5057608;28;20779;-68
2023/11/14 15:43:41;;;;;;;;;;;;;;;;;;5058829;28;19922;-68
2023/11/14 15:46:10;;;;;;;;;;;;;;;;;;5054020;28;19920;-68
2023/11/14 15:48:35;;;;;;;;;;;;;;;;;;5053824;28;19932;-68
2023/11/14 15:51:02;;;;;;;;;;;;;;;;;;5059137;28;19967;-68
2023/11/14 15:53:27;;;;;;;;;;;;;;;;;;5053748;28;20662;-68
2023/11/14 15:55:53;;;;;;;;;;;;;;;;;;5058348;28;19920;-68
2023/11/14 15:58:18;;;;;;;;;;;;;;;;;;5057015;28;20371;-68
2023/11/14 16:00:43;;;;;;;;;;;;;;;;;;5057265;28;19939;-68
2023/11/14 16:03:11;;;;;;;;;;;;;;;;;;5039619;28;20459;-70
2023/11/14 16:05:39;;;;;;;;;;;;;;;;;;5069536;28;19917;-69
2023/11/14 16:08:04;;;;;;;;;;;;;;;;;;5056472;28;19927;-69
2023/11/14 16:10:29;;;;;;;;;;;;;;;;;;5042466;28;19916;-69
2023/11/14 16:12:55;;;;;;;;;;;;;;;;;;5057407;28;20474;-69
2023/11/14 16:15:20;;;;;;;;;;;;;;;;;;5041313;28;20431;-71
2023/11/14 16:17:46;;;;;;;;;;;;;;;;;;5058898;28;19942;-70
2023/11/14 16:20:12;;;;;;;;;;;;;;;;;;5039738;28;20397;-72
2023/11/14 16:22:40;;;;;;;;;;;;;;;;;;5055142;28;20575;-70
2023/11/14 16:25:08;;;;;;;;;;;;;;;;;;5057580;28;19916;-69
2023/11/14 16:27:33;;;;;;;;;;;;;;;;;;5052754;28;19954;-70
2023/11/14 16:29:58;;;;;;;;;;;;;;;;;;5055726;28;20579;-69
2023/11/14 16:32:24;;;;;;;;;;;;;;;;;;5041559;28;20368;-69
2023/11/14 16:34:49;;;;;;;;;;;;;;;;;;5056617;28;19935;-70
2023/11/14 16:37:15;;;;;;;;;;;;;;;;;;5056543;28;20001;-71
2023/11/14 16:39:42;;;;;;;;;;;;;;;;;;5029644;28;19920;-70